KATW/ATW METAR and TAF weather

Enter ICAO airport designator
Station Type Date Time Source
KATW METAR 2022/06/30 12:45 UTC NOAA

KATW 301245Z 22012G18KT 10SM BKN120 23/18 A2996


Station Type Date Time Source
KATW Decoded METAR 2022/06/30 12:45 UTC NOAA

Appleton / Outagamie, WI, United States (KATW) 44-15N 088-31W
Jun 30, 2022 - 08:45 AM EDT / 2022.06.30 1245 UTC
Wind: from the SW (220 degrees) at 14 MPH (12 KT) gusting to 21 MPH (18 KT):0
Visibility: 10 mile(s):0
Sky conditions: mostly cloudy
Temperature: 73 F (23 C)
Dew Point: 64 F (18 C)
Relative Humidity: 73%
Pressure (altimeter): 29.96 in. Hg (1014 hPa)
ob: KATW 301245Z 22012G18KT 10SM BKN120 23/18 A2996
cycle: 13

Station Type Date Time Source
KATW TAF 2022/06/30 12:45 UTC NOAA

TAF KATW 301141Z 3012/0112 20013G25KT P6SM BKN150 WS020/24045KT
FM301400 23014G23KT P6SM SCT080 BKN120
TEMPO 3014/3018 -SHRA BKN035
FM010200 24008KT P6SM BKN080 WS020/24040KT PROB30 0103/0105 1SM TSRA BKN018CB
FM010800 32006KT P6SM SCT070

Example: see airport list